sensor_id;sensor_type;location;lat;lon;timestamp;pressure;altitude;pressure_sealevel;temperature;humidity
42761;BME280;31672;47.638;19.026;2022-12-18T00:00:09;101456.13;;;-4.44;95.92
42761;BME280;31672;47.638;19.026;2022-12-18T00:05:12;101463.88;;;-4.42;95.97
42761;BME280;31672;47.638;19.026;2022-12-18T00:10:15;101467.28;;;-4.40;96.19
42761;BME280;31672;47.638;19.026;2022-12-18T00:15:18;101476.69;;;-4.36;96.42
42761;BME280;31672;47.638;19.026;2022-12-18T00:20:21;101493.06;;;-4.34;95.75
42761;BME280;31672;47.638;19.026;2022-12-18T00:25:28;101507.78;;;-4.35;95.76
42761;BME280;31672;47.638;19.026;2022-12-18T00:30:31;101517.31;;;-4.35;95.87
42761;BME280;31672;47.638;19.026;2022-12-18T00:35:33;101527.84;;;-4.41;95.83
42761;BME280;31672;47.638;19.026;2022-12-18T00:40:37;101533.09;;;-4.44;95.59
42761;BME280;31672;47.638;19.026;2022-12-18T00:45:39;101538.47;;;-4.50;96.06
42761;BME280;31672;47.638;19.026;2022-12-18T00:50:43;101542.09;;;-4.58;95.71
42761;BME280;31672;47.638;19.026;2022-12-18T00:55:47;101546.53;;;-4.61;96.01
42761;BME280;31672;47.638;19.026;2022-12-18T01:00:50;101552.63;;;-4.64;96.44
42761;BME280;31672;47.638;19.026;2022-12-18T01:05:52;101566.50;;;-4.65;96.45
42761;BME280;31672;47.638;19.026;2022-12-18T01:10:55;101576.88;;;-4.65;96.61
42761;BME280;31672;47.638;19.026;2022-12-18T01:15:59;101568.19;;;-4.64;96.48
42761;BME280;31672;47.638;19.026;2022-12-18T01:21:11;101575.91;;;-4.61;96.98
42761;BME280;31672;47.638;19.026;2022-12-18T01:26:16;101578.38;;;-4.56;96.75
42761;BME280;31672;47.638;19.026;2022-12-18T01:31:22;101586.94;;;-4.52;96.99
42761;BME280;31672;47.638;19.026;2022-12-18T01:36:29;101590.34;;;-4.50;97.07
42761;BME280;31672;47.638;19.026;2022-12-18T01:41:34;101593.84;;;-4.51;96.87
42761;BME280;31672;47.638;19.026;2022-12-18T01:46:56;101588.75;;;-4.54;96.71
42761;BME280;31672;47.638;19.026;2022-12-18T01:51:59;101600.97;;;-4.60;96.52
42761;BME280;31672;47.638;19.026;2022-12-18T01:57:02;101597.72;;;-4.68;96.58
42761;BME280;31672;47.638;19.026;2022-12-18T02:02:05;101603.09;;;-4.77;96.64
42761;BME280;31672;47.638;19.026;2022-12-18T02:08:09;101608.50;;;-4.86;96.83
42761;BME280;31672;47.638;19.026;2022-12-18T02:25:05;101638.59;;;-5.18;97.21
42761;BME280;31672;47.638;19.026;2022-12-18T02:30:16;101642.25;;;-5.26;97.50
42761;BME280;31672;47.638;19.026;2022-12-18T02:35:27;101653.53;;;-5.30;97.82
42761;BME280;31672;47.638;19.026;2022-12-18T02:40:32;101651.03;;;-5.35;98.27
42761;BME280;31672;47.638;19.026;2022-12-18T02:45:35;101663.19;;;-5.37;98.36
42761;BME280;31672;47.638;19.026;2022-12-18T02:50:45;101658.97;;;-5.43;98.56
42761;BME280;31672;47.638;19.026;2022-12-18T02:56:21;101672.91;;;-5.48;98.87
42761;BME280;31672;47.638;19.026;2022-12-18T03:02:16;101675.59;;;-5.54;98.74
42761;BME280;31672;47.638;19.026;2022-12-18T03:07:34;101679.25;;;-5.63;99.06
42761;BME280;31672;47.638;19.026;2022-12-18T03:12:52;101693.16;;;-5.69;98.97
42761;BME280;31672;47.638;19.026;2022-12-18T03:18:21;101696.72;;;-5.76;99.15
42761;BME280;31672;47.638;19.026;2022-12-18T03:23:32;101708.97;;;-5.84;99.32
42761;BME280;31672;47.638;19.026;2022-12-18T03:28:44;101716.03;;;-5.92;99.43
42761;BME280;31672;47.638;19.026;2022-12-18T03:33:55;101717.97;;;-6.03;99.40
42761;BME280;31672;47.638;19.026;2022-12-18T03:38:59;101718.97;;;-6.13;99.54
42761;BME280;31672;47.638;19.026;2022-12-18T03:44:36;101724.28;;;-6.21;99.60
42761;BME280;31672;47.638;19.026;2022-12-18T03:55:14;101743.47;;;-6.36;100.00
42761;BME280;31672;47.638;19.026;2022-12-18T04:00:19;101742.72;;;-6.41;99.94
42761;BME280;31672;47.638;19.026;2022-12-18T04:05:25;101754.00;;;-6.47;100.00
42761;BME280;31672;47.638;19.026;2022-12-18T04:10:29;101747.19;;;-6.55;100.00
42761;BME280;31672;47.638;19.026;2022-12-18T04:15:34;101750.72;;;-6.59;100.00
42761;BME280;31672;47.638;19.026;2022-12-18T04:20:39;101751.63;;;-6.63;100.00
42761;BME280;31672;47.638;19.026;2022-12-18T04:25:42;101747.34;;;-6.64;100.00
42761;BME280;31672;47.638;19.026;2022-12-18T04:30:47;101759.38;;;-6.62;100.00
42761;BME280;31672;47.638;19.026;2022-12-18T04:35:50;101763.75;;;-6.65;100.00
42761;BME280;31672;47.638;19.026;2022-12-18T04:40:53;101776.69;;;-6.68;100.00
42761;BME280;31672;47.638;19.026;2022-12-18T04:46:07;101784.50;;;-6.71;100.00
42761;BME280;31672;47.638;19.026;2022-12-18T04:51:11;101798.22;;;-6.68;100.00
42761;BME280;31672;47.638;19.026;2022-12-18T04:56:15;101793.00;;;-6.63;100.00
42761;BME280;31672;47.638;19.026;2022-12-18T05:01:19;101802.44;;;-6.61;100.00
42761;BME280;31672;47.638;19.026;2022-12-18T05:06:22;101815.44;;;-6.64;100.00
42761;BME280;31672;47.638;19.026;2022-12-18T05:11:25;101818.03;;;-6.67;100.00
42761;BME280;31672;47.638;19.026;2022-12-18T05:16:27;101813.78;;;-6.72;100.00
42761;BME280;31672;47.638;19.026;2022-12-18T05:21:31;101819.91;;;-6.77;100.00
42761;BME280;31672;47.638;19.026;2022-12-18T05:26:34;101827.72;;;-6.83;100.00
42761;BME280;31672;47.638;19.026;2022-12-18T05:31:38;101831.22;;;-6.88;100.00
42761;BME280;31672;47.638;19.026;2022-12-18T05:36:41;101837.28;;;-6.91;100.00
42761;BME280;31672;47.638;19.026;2022-12-18T05:41:44;101835.59;;;-6.93;100.00
42761;BME280;31672;47.638;19.026;2022-12-18T05:46:48;101850.25;;;-6.94;100.00
42761;BME280;31672;47.638;19.026;2022-12-18T05:51:51;101858.84;;;-6.93;100.00
42761;BME280;31672;47.638;19.026;2022-12-18T05:56:54;101865.72;;;-6.91;100.00
42761;BME280;31672;47.638;19.026;2022-12-18T06:01:57;101877.81;;;-6.93;100.00
42761;BME280;31672;47.638;19.026;2022-12-18T06:07:02;101888.16;;;-6.96;100.00
42761;BME280;31672;47.638;19.026;2022-12-18T06:12:06;101886.50;;;-7.00;100.00
42761;BME280;31672;47.638;19.026;2022-12-18T06:17:09;101889.09;;;-7.02;100.00
42761;BME280;31672;47.638;19.026;2022-12-18T06:22:12;101902.06;;;-7.06;100.00
42761;BME280;31672;47.638;19.026;2022-12-18T06:27:14;101898.66;;;-7.11;100.00
42761;BME280;31672;47.638;19.026;2022-12-18T06:43:58;101920.75;;;-6.80;100.00
42761;BME280;31672;47.638;19.026;2022-12-18T06:49:02;101921.50;;;-6.70;100.00
42761;BME280;31672;47.638;19.026;2022-12-18T06:54:05;101936.91;;;-6.59;100.00
42761;BME280;31672;47.638;19.026;2022-12-18T06:59:08;101941.13;;;-6.52;100.00
42761;BME280;31672;47.638;19.026;2022-12-18T07:04:11;101947.09;;;-6.45;100.00
42761;BME280;31672;47.638;19.026;2022-12-18T07:09:14;101954.00;;;-6.46;100.00
42761;BME280;31672;47.638;19.026;2022-12-18T07:14:18;101962.59;;;-6.44;100.00
42761;BME280;31672;47.638;19.026;2022-12-18T07:19:24;101972.94;;;-6.44;100.00
42761;BME280;31672;47.638;19.026;2022-12-18T07:24:27;101969.47;;;-6.40;100.00
42761;BME280;31672;47.638;19.026;2022-12-18T07:29:31;101981.38;;;-6.27;100.00
42761;BME280;31672;47.638;19.026;2022-12-18T07:34:34;101990.22;;;-5.78;100.00
42761;BME280;31672;47.638;19.026;2022-12-18T07:39:38;101990.22;;;-5.18;100.00
42761;BME280;31672;47.638;19.026;2022-12-18T07:44:41;101996.06;;;-4.54;100.00
42761;BME280;31672;47.638;19.026;2022-12-18T07:49:44;102008.75;;;-3.94;100.00
42761;BME280;31672;47.638;19.026;2022-12-18T07:54:46;102020.56;;;-3.39;100.00
42761;BME280;31672;47.638;19.026;2022-12-18T07:59:52;102020.97;;;-2.83;100.00
42761;BME280;31672;47.638;19.026;2022-12-18T08:04:55;102015.56;;;-2.42;100.00
42761;BME280;31672;47.638;19.026;2022-12-18T08:09:58;102029.16;;;-1.99;100.00
42761;BME280;31672;47.638;19.026;2022-12-18T08:15:01;102037.66;;;-1.62;100.00
42761;BME280;31672;47.638;19.026;2022-12-18T08:20:04;102029.69;;;-1.29;100.00
42761;BME280;31672;47.638;19.026;2022-12-18T08:25:08;102029.50;;;-0.95;100.00
42761;BME280;31672;47.638;19.026;2022-12-18T08:30:12;102037.88;;;-0.59;100.00
42761;BME280;31672;47.638;19.026;2022-12-18T08:35:15;102037.03;;;-0.34;98.91
42761;BME280;31672;47.638;19.026;2022-12-18T08:40:20;102030.16;;;-0.12;96.84
42761;BME280;31672;47.638;19.026;2022-12-18T08:45:23;102040.59;;;0.12;95.60
42761;BME280;31672;47.638;19.026;2022-12-18T08:50:27;102046.97;;;0.05;93.39
42761;BME280;31672;47.638;19.026;2022-12-18T08:55:30;102042.56;;;-0.43;92.09
42761;BME280;31672;47.638;19.026;2022-12-18T09:00:33;102055.69;;;-0.98;91.54
42761;BME280;31672;47.638;19.026;2022-12-18T09:05:36;102053.53;;;-1.41;91.28
42761;BME280;31672;47.638;19.026;2022-12-18T09:10:48;102066.44;;;-1.66;90.92
42761;BME280;31672;47.638;19.026;2022-12-18T09:15:53;102082.34;;;-1.75;90.93
42761;BME280;31672;47.638;19.026;2022-12-18T09:20:56;102075.81;;;-1.90;90.46
42761;BME280;31672;47.638;19.026;2022-12-18T09:26:00;102085.66;;;-2.01;90.41
42761;BME280;31672;47.638;19.026;2022-12-18T09:31:08;102078.22;;;-2.15;90.52
42761;BME280;31672;47.638;19.026;2022-12-18T09:36:15;102082.72;;;-2.20;90.19
42761;BME280;31672;47.638;19.026;2022-12-18T09:41:45;102083.66;;;-2.24;90.38
42761;BME280;31672;47.638;19.026;2022-12-18T09:52:39;102070.59;;;-2.21;90.73
42761;BME280;31672;47.638;19.026;2022-12-18T09:57:50;102071.44;;;-2.22;90.57
42761;BME280;31672;47.638;19.026;2022-12-18T10:03:13;102066.13;;;-2.18;90.52
42761;BME280;31672;47.638;19.026;2022-12-18T10:09:28;102075.53;;;-2.12;90.46
42761;BME280;31672;47.638;19.026;2022-12-18T10:14:52;102073.66;;;-2.07;90.25
42761;BME280;31672;47.638;19.026;2022-12-18T10:20:13;102071.00;;;-2.04;90.15
42761;BME280;31672;47.638;19.026;2022-12-18T10:30:43;102072.34;;;-1.91;89.95
42761;BME280;31672;47.638;19.026;2022-12-18T10:35:49;102066.97;;;-1.84;89.75
42761;BME280;31672;47.638;19.026;2022-12-18T10:40:57;102070.16;;;-1.75;89.87
42761;BME280;31672;47.638;19.026;2022-12-18T10:51:28;102069.91;;;-1.36;89.51
42761;BME280;31672;47.638;19.026;2022-12-18T10:56:35;102057.94;;;-1.15;88.44
42761;BME280;31672;47.638;19.026;2022-12-18T11:01:56;102055.97;;;-1.07;88.27
42761;BME280;31672;47.638;19.026;2022-12-18T11:07:07;102044.59;;;-1.04;87.76
42761;BME280;31672;47.638;19.026;2022-12-18T11:22:34;102037.34;;;-0.96;86.75
42761;BME280;31672;47.638;19.026;2022-12-18T11:27:39;102048.56;;;-0.93;86.55
42761;BME280;31672;47.638;19.026;2022-12-18T11:32:59;102044.91;;;-0.87;86.29
42761;BME280;31672;47.638;19.026;2022-12-18T11:38:34;102036.09;;;-0.85;85.93
42761;BME280;31672;47.638;19.026;2022-12-18T11:43:43;102029.94;;;-0.82;85.83
42761;BME280;31672;47.638;19.026;2022-12-18T11:49:34;102020.16;;;-0.75;85.23
42761;BME280;31672;47.638;19.026;2022-12-18T11:54:38;102016.53;;;-0.71;84.62
42761;BME280;31672;47.638;19.026;2022-12-18T12:11:16;102015.16;;;-0.57;83.66
42761;BME280;31672;47.638;19.026;2022-12-18T12:16:28;102008.03;;;-0.51;83.44
42761;BME280;31672;47.638;19.026;2022-12-18T12:33:26;102005.50;;;-0.55;82.37
42761;BME280;31672;47.638;19.026;2022-12-18T12:38:47;102007.25;;;-0.55;82.36
42761;BME280;31672;47.638;19.026;2022-12-18T12:43:57;102017.69;;;-0.53;82.11
42761;BME280;31672;47.638;19.026;2022-12-18T12:49:04;102027.25;;;-0.54;81.60
42761;BME280;31672;47.638;19.026;2022-12-18T12:54:23;102043.81;;;-0.55;81.04
42761;BME280;31672;47.638;19.026;2022-12-18T13:10:41;102063.06;;;-0.58;80.82
42761;BME280;31672;47.638;19.026;2022-12-18T13:16:04;102062.22;;;-0.58;80.25
42761;BME280;31672;47.638;19.026;2022-12-18T13:21:24;102061.50;;;-0.63;80.46
42761;BME280;31672;47.638;19.026;2022-12-18T13:26:30;102072.09;;;-0.68;80.68
42761;BME280;31672;47.638;19.026;2022-12-18T13:36:45;102078.38;;;-0.73;80.95
42761;BME280;31672;47.638;19.026;2022-12-18T13:47:37;102082.00;;;-0.77;80.78
42761;BME280;31672;47.638;19.026;2022-12-18T13:52:42;102090.03;;;-0.84;80.74
42761;BME280;31672;47.638;19.026;2022-12-18T13:57:46;102083.28;;;-0.91;80.88
42761;BME280;31672;47.638;19.026;2022-12-18T14:02:50;102100.09;;;-0.99;80.96
42761;BME280;31672;47.638;19.026;2022-12-18T14:08:14;102092.50;;;-1.07;81.69
42761;BME280;31672;47.638;19.026;2022-12-18T14:13:31;102091.84;;;-1.14;82.39
42761;BME280;31672;47.638;19.026;2022-12-18T14:23:47;102095.13;;;-1.37;83.18
42761;BME280;31672;47.638;19.026;2022-12-18T14:28:50;102108.56;;;-1.50;84.01
42761;BME280;31672;47.638;19.026;2022-12-18T14:33:53;102115.88;;;-1.63;84.68
42761;BME280;31672;47.638;19.026;2022-12-18T14:38:58;102122.34;;;-1.76;85.22
42761;BME280;31672;47.638;19.026;2022-12-18T14:44:07;102129.59;;;-1.88;86.31
42761;BME280;31672;47.638;19.026;2022-12-18T14:49:33;102138.56;;;-1.99;86.54
42761;BME280;31672;47.638;19.026;2022-12-18T14:54:37;102142.34;;;-2.11;87.18
42761;BME280;31672;47.638;19.026;2022-12-18T14:59:41;102136.59;;;-2.24;87.76
42761;BME280;31672;47.638;19.026;2022-12-18T15:04:44;102155.97;;;-2.34;88.32
42761;BME280;31672;47.638;19.026;2022-12-18T15:20:48;102174.91;;;-2.63;89.03
42761;BME280;31672;47.638;19.026;2022-12-18T15:26:08;102175.09;;;-2.72;89.17
42761;BME280;31672;47.638;19.026;2022-12-18T15:36:17;102191.25;;;-2.97;89.65
42761;BME280;31672;47.638;19.026;2022-12-18T15:41:31;102184.66;;;-3.13;89.41
42761;BME280;31672;47.638;19.026;2022-12-18T15:46:36;102199.66;;;-3.26;89.97
42761;BME280;31672;47.638;19.026;2022-12-18T15:51:40;102209.41;;;-3.37;89.91
42761;BME280;31672;47.638;19.026;2022-12-18T15:56:43;102213.91;;;-3.45;90.41
42761;BME280;31672;47.638;19.026;2022-12-18T16:02:16;102215.09;;;-3.63;90.72
42761;BME280;31672;47.638;19.026;2022-12-18T16:07:20;102230.09;;;-3.77;90.87
42761;BME280;31672;47.638;19.026;2022-12-18T16:12:27;102231.16;;;-3.90;91.43
42761;BME280;31672;47.638;19.026;2022-12-18T16:17:30;102240.91;;;-4.03;91.70
42761;BME280;31672;47.638;19.026;2022-12-18T16:22:33;102251.44;;;-4.12;92.11
42761;BME280;31672;47.638;19.026;2022-12-18T16:27:36;102256.78;;;-4.21;92.59
42761;BME280;31672;47.638;19.026;2022-12-18T16:32:39;102254.25;;;-4.27;92.81
42761;BME280;31672;47.638;19.026;2022-12-18T16:37:42;102257.81;;;-4.33;93.25
42761;BME280;31672;47.638;19.026;2022-12-18T16:42:46;102256.91;;;-4.32;93.76
42761;BME280;31672;47.638;19.026;2022-12-18T16:47:49;102276.91;;;-4.37;94.02
42761;BME280;31672;47.638;19.026;2022-12-18T16:52:52;102269.28;;;-4.48;94.10
42761;BME280;31672;47.638;19.026;2022-12-18T16:57:56;102272.91;;;-4.60;94.12
42761;BME280;31672;47.638;19.026;2022-12-18T17:02:58;102266.13;;;-4.71;94.78
42761;BME280;31672;47.638;19.026;2022-12-18T17:08:02;102257.63;;;-4.82;94.53
42761;BME280;31672;47.638;19.026;2022-12-18T17:13:05;102257.78;;;-4.95;94.96
42761;BME280;31672;47.638;19.026;2022-12-18T17:18:08;102263.06;;;-5.04;95.24
42761;BME280;31672;47.638;19.026;2022-12-18T17:23:11;102259.69;;;-5.09;95.57
42761;BME280;31672;47.638;19.026;2022-12-18T17:28:14;102271.84;;;-5.14;96.00
42761;BME280;31672;47.638;19.026;2022-12-18T17:33:17;102273.66;;;-5.21;96.16
42761;BME280;31672;47.638;19.026;2022-12-18T17:38:20;102271.97;;;-5.28;96.38
42761;BME280;31672;47.638;19.026;2022-12-18T17:43:23;102281.56;;;-5.36;96.65
42761;BME280;31672;47.638;19.026;2022-12-18T17:48:26;102286.03;;;-5.46;96.65
42761;BME280;31672;47.638;19.026;2022-12-18T17:53:29;102281.75;;;-5.54;97.17
42761;BME280;31672;47.638;19.026;2022-12-18T17:58:36;102282.69;;;-5.61;96.97
42761;BME280;31672;47.638;19.026;2022-12-18T18:03:40;102277.56;;;-5.66;97.50
42761;BME280;31672;47.638;19.026;2022-12-18T18:08:44;102289.69;;;-5.70;97.67
42761;BME280;31672;47.638;19.026;2022-12-18T18:13:47;102288.84;;;-5.76;97.96
42761;BME280;31672;47.638;19.026;2022-12-18T18:19:10;102283.75;;;-5.84;98.13
42761;BME280;31672;47.638;19.026;2022-12-18T18:24:18;102290.69;;;-5.86;98.40
42761;BME280;31672;47.638;19.026;2022-12-18T18:29:23;102288.19;;;-5.94;98.60
42761;BME280;31672;47.638;19.026;2022-12-18T18:34:31;102286.50;;;-5.98;98.79
42761;BME280;31672;47.638;19.026;2022-12-18T18:39:35;102289.06;;;-5.96;99.55
42761;BME280;31672;47.638;19.026;2022-12-18T18:44:38;102306.31;;;-5.95;99.59
42761;BME280;31672;47.638;19.026;2022-12-18T18:49:46;102313.22;;;-5.97;99.84
42761;BME280;31672;47.638;19.026;2022-12-18T18:54:49;102304.63;;;-5.99;100.00
42761;BME280;31672;47.638;19.026;2022-12-18T19:00:15;102308.94;;;-6.01;100.00
42761;BME280;31672;47.638;19.026;2022-12-18T19:05:18;102321.91;;;-6.04;100.00
42761;BME280;31672;47.638;19.026;2022-12-18T19:10:20;102331.44;;;-6.08;100.00
42761;BME280;31672;47.638;19.026;2022-12-18T19:15:23;102328.84;;;-6.12;100.00
42761;BME280;31672;47.638;19.026;2022-12-18T19:20:27;102339.25;;;-6.18;100.00
42761;BME280;31672;47.638;19.026;2022-12-18T19:25:30;102342.75;;;-6.26;100.00
42761;BME280;31672;47.638;19.026;2022-12-18T19:30:44;102359.16;;;-6.27;100.00
42761;BME280;31672;47.638;19.026;2022-12-18T19:35:48;102353.13;;;-6.32;100.00
42761;BME280;31672;47.638;19.026;2022-12-18T19:40:51;102360.91;;;-6.35;100.00
42761;BME280;31672;47.638;19.026;2022-12-18T19:45:54;102354.91;;;-6.40;100.00
42761;BME280;31672;47.638;19.026;2022-12-18T19:50:57;102367.00;;;-6.45;100.00
42761;BME280;31672;47.638;19.026;2022-12-18T19:56:10;102368.78;;;-6.53;100.00
42761;BME280;31672;47.638;19.026;2022-12-18T20:01:15;102372.22;;;-6.56;100.00
42761;BME280;31672;47.638;19.026;2022-12-18T20:06:34;102373.97;;;-6.62;100.00
42761;BME280;31672;47.638;19.026;2022-12-18T20:11:38;102381.75;;;-6.70;100.00
42761;BME280;31672;47.638;19.026;2022-12-18T20:16:43;102385.19;;;-6.74;100.00
42761;BME280;31672;47.638;19.026;2022-12-18T20:21:47;102401.59;;;-6.77;100.00
42761;BME280;31672;47.638;19.026;2022-12-18T20:26:49;102407.63;;;-6.81;100.00
42761;BME280;31672;47.638;19.026;2022-12-18T20:31:52;102411.09;;;-6.82;100.00
42761;BME280;31672;47.638;19.026;2022-12-18T20:36:55;102418.84;;;-6.82;100.00
42761;BME280;31672;47.638;19.026;2022-12-18T20:41:59;102410.22;;;-6.84;100.00
42761;BME280;31672;47.638;19.026;2022-12-18T20:47:02;102411.06;;;-6.85;100.00
42761;BME280;31672;47.638;19.026;2022-12-18T20:52:10;102415.41;;;-6.87;100.00
42761;BME280;31672;47.638;19.026;2022-12-18T20:57:13;102420.56;;;-6.90;100.00
42761;BME280;31672;47.638;19.026;2022-12-18T21:02:17;102429.19;;;-6.88;100.00
42761;BME280;31672;47.638;19.026;2022-12-18T21:07:23;102439.50;;;-6.85;100.00
42761;BME280;31672;47.638;19.026;2022-12-18T21:12:25;102441.22;;;-6.84;100.00
42761;BME280;31672;47.638;19.026;2022-12-18T21:17:52;102440.38;;;-6.77;100.00
42761;BME280;31672;47.638;19.026;2022-12-18T21:22:55;102443.81;;;-6.76;100.00
42761;BME280;31672;47.638;19.026;2022-12-18T21:28:05;102435.19;;;-6.75;100.00
42761;BME280;31672;47.638;19.026;2022-12-18T21:33:08;102422.25;;;-6.72;100.00
42761;BME280;31672;47.638;19.026;2022-12-18T21:38:12;102424.84;;;-6.69;100.00
42761;BME280;31672;47.638;19.026;2022-12-18T21:43:15;102413.63;;;-6.65;100.00
42761;BME280;31672;47.638;19.026;2022-12-18T21:48:39;102430.88;;;-6.59;100.00
42761;BME280;31672;47.638;19.026;2022-12-18T21:53:44;102415.34;;;-6.58;100.00
42761;BME280;31672;47.638;19.026;2022-12-18T21:58:50;102421.38;;;-6.57;100.00
42761;BME280;31672;47.638;19.026;2022-12-18T22:03:58;102429.13;;;-6.57;100.00
42761;BME280;31672;47.638;19.026;2022-12-18T22:09:03;102425.66;;;-6.50;100.00
42761;BME280;31672;47.638;19.026;2022-12-18T22:14:06;102433.38;;;-6.35;100.00
42761;BME280;31672;47.638;19.026;2022-12-18T22:19:11;102428.13;;;-6.16;100.00
42761;BME280;31672;47.638;19.026;2022-12-18T22:24:20;102425.44;;;-5.98;100.00
42761;BME280;31672;47.638;19.026;2022-12-18T22:29:24;102426.13;;;-5.76;100.00
42761;BME280;31672;47.638;19.026;2022-12-18T22:34:46;102428.59;;;-5.59;100.00
42761;BME280;31672;47.638;19.026;2022-12-18T22:39:49;102439.69;;;-5.41;100.00
42761;BME280;31672;47.638;19.026;2022-12-18T22:44:52;102435.25;;;-5.25;100.00
42761;BME280;31672;47.638;19.026;2022-12-18T22:49:54;102436.00;;;-5.12;100.00
42761;BME280;31672;47.638;19.026;2022-12-18T22:54:57;102441.94;;;-4.99;100.00
42761;BME280;31672;47.638;19.026;2022-12-18T23:00:00;102436.66;;;-4.89;100.00
42761;BME280;31672;47.638;19.026;2022-12-18T23:05:05;102435.69;;;-4.78;100.00
42761;BME280;31672;47.638;19.026;2022-12-18T23:10:08;102429.53;;;-4.70;100.00
42761;BME280;31672;47.638;19.026;2022-12-18T23:15:11;102435.53;;;-4.62;100.00
42761;BME280;31672;47.638;19.026;2022-12-18T23:20:16;102438.00;;;-4.52;100.00
42761;BME280;31672;47.638;19.026;2022-12-18T23:25:19;102436.19;;;-4.44;100.00
42761;BME280;31672;47.638;19.026;2022-12-18T23:30:22;102426.63;;;-4.38;100.00
42761;BME280;31672;47.638;19.026;2022-12-18T23:35:25;102431.72;;;-4.32;100.00
42761;BME280;31672;47.638;19.026;2022-12-18T23:40:28;102430.81;;;-4.29;100.00
42761;BME280;31672;47.638;19.026;2022-12-18T23:45:36;102427.25;;;-4.22;100.00
42761;BME280;31672;47.638;19.026;2022-12-18T23:50:40;102438.47;;;-4.20;100.00
42761;BME280;31672;47.638;19.026;2022-12-18T23:55:44;102432.44;;;-4.19;100.00
